Time;durP1;ratioP1;P1;durP2;ratioP2;P2;SDS_P1;SDS_P2;PMS_P1;PMS_P2;Temp;Humidity;BMP_temperature;BMP_pressure;BME280_temperature;BME280_humidity;BME280_pressure;Samples;Min_cycle;Max_cycle;Signal;HPM_P1;HPM_P2
2022/04/28 06:03:03;;;;;;;9.30;5.13;;;;;;;;;;10595474;27;20495;-84
2022/04/28 06:08:05;;;;;;;9.48;4.93;;;;;;;;;;10606294;28;20016;-84
2022/04/28 06:13:06;;;;;;;;;;;;;;;;;;10623391;28;20023;-81
2022/04/28 06:18:07;;;;;;;7.28;3.72;;;;;;;;;;10624032;28;19892;-84
2022/04/28 06:23:09;;;;;;;;;;;;;;;;;;10627117;28;20036;-84
2022/04/28 06:28:11;;;;;;;7.35;4.60;;;;;;;;;;10625046;28;19967;-84
2022/04/28 06:33:12;;;;;;;6.45;3.70;;;;;;;;;;10608483;28;20028;-85
2022/04/28 06:38:13;;;;;;;11.93;6.20;;;;;;;;;;10594243;28;20366;-85
2022/04/28 06:43:14;;;;;;;9.35;4.90;;;;;;;;;;10591467;28;20054;-84
2022/04/28 06:48:15;;;;;;;5.65;3.72;;;;;;;;;;10587954;28;20077;-85
2022/04/28 06:53:18;;;;;;;13.10;5.50;;;;;;;;;;10603418;28;20028;-84
2022/04/28 06:58:21;;;;;;;9.95;4.20;;;;;;;;;;10599835;28;20023;-83
2022/04/28 07:03:24;;;;;;;3.67;2.00;;;;;;;;;;10601823;28;20043;-84
2022/04/28 07:08:25;;;;;;;4.35;2.60;;;;;;;;;;10590264;28;20020;-79
2022/04/28 07:13:26;;;;;;;5.03;3.03;;;;;;;;;;10557905;28;20027;-78
2022/04/28 07:18:29;;;;;;;6.72;3.45;;;;;;;;;;10555187;28;20389;-82
2022/04/28 07:23:30;;;;;;;6.20;4.20;;;;;;;;;;10540862;28;20028;-81
2022/04/28 07:28:31;;;;;;;8.43;3.50;;;;;;;;;;10550900;28;20024;-79
2022/04/28 07:33:33;;;;;;;9.43;4.85;;;;;;;;;;10545094;28;20501;-78
2022/04/28 07:38:34;;;;;;;8.13;3.42;;;;;;;;;;10548337;28;20020;-80
2022/04/28 07:43:35;;;;;;;6.65;3.72;;;;;;;;;;10556298;28;20028;-82
2022/04/28 07:48:36;;;;;;;6.25;3.63;;;;;;;;;;10548186;28;20119;-76
2022/04/28 07:53:38;;;;;;;7.22;3.90;;;;;;;;;;10544460;28;20046;-76
2022/04/28 07:58:39;;;;;;;6.38;3.90;;;;;;;;;;10554612;28;20115;-80
2022/04/28 08:03:41;;;;;;;8.43;4.20;;;;;;;;;;10557778;28;20031;-76
2022/04/28 08:08:43;;;;;;;6.10;3.95;;;;;;;;;;10544932;28;20478;-77
2022/04/28 08:13:44;;;;;;;10.55;4.00;;;;;;;;;;10547928;28;20026;-80
2022/04/28 08:18:45;;;;;;;7.00;4.05;;;;;;;;;;10556923;28;20522;-80
2022/04/28 08:23:46;;;;;;;8.57;3.60;;;;;;;;;;10557425;28;20032;-81
2022/04/28 08:28:47;;;;;;;6.50;3.92;;;;;;;;;;10553255;28;20084;-79
2022/04/28 08:33:48;;;;;;;6.45;3.42;;;;;;;;;;10549551;28;20027;-79
2022/04/28 08:38:50;;;;;;;7.47;3.85;;;;;;;;;;10557909;28;20035;-80
2022/04/28 08:43:51;;;;;;;8.88;4.95;;;;;;;;;;10562025;28;20028;-78
2022/04/28 08:48:53;;;;;;;6.85;4.10;;;;;;;;;;10538615;28;20032;-80
2022/04/28 08:53:55;;;;;;;6.50;4.95;;;;;;;;;;10555167;28;20024;-80
2022/04/28 08:58:56;;;;;;;8.68;5.13;;;;;;;;;;10552924;28;20178;-79
2022/04/28 09:03:59;;;;;;;7.53;5.13;;;;;;;;;;10549913;28;20573;-81
2022/04/28 09:09:01;;;;;;;6.00;3.70;;;;;;;;;;10551431;28;20482;-83
2022/04/28 09:14:09;;;;;;;10.10;3.53;;;;;;;;;;10557276;28;20024;-83
2022/04/28 09:19:11;;;;;;;9.02;4.25;;;;;;;;;;10557358;28;20032;-82
2022/04/28 09:24:13;;;;;;;7.38;3.85;;;;;;;;;;10561345;28;20020;-79
2022/04/28 09:29:15;;;;;;;7.28;4.43;;;;;;;;;;10556702;28;20402;-82
2022/04/28 09:34:20;;;;;;;7.90;3.90;;;;;;;;;;10557287;28;20084;-82
2022/04/28 09:44:43;;;;;;;8.88;5.30;;;;;;;;;;10565258;28;20036;-80
2022/04/28 09:49:52;;;;;;;5.70;4.40;;;;;;;;;;10556859;28;20034;-79
2022/04/28 09:55:03;;;;;;;6.78;4.60;;;;;;;;;;10553555;28;20042;-79
2022/04/28 10:00:04;;;;;;;8.07;4.30;;;;;;;;;;10548874;28;20114;-81
2022/04/28 10:05:06;;;;;;;7.32;3.92;;;;;;;;;;10549881;28;20077;-80
2022/04/28 10:10:09;;;;;;;6.72;4.50;;;;;;;;;;10548646;28;20024;-79
2022/04/28 10:15:17;;;;;;;8.50;4.55;;;;;;;;;;10566543;28;20036;-78
2022/04/28 10:20:43;;;;;;;7.20;3.90;;;;;;;;;;10563149;28;20028;-82
2022/04/28 10:36:30;;;;;;;8.43;4.30;;;;;;;;;;10552658;28;20024;-82
2022/04/28 10:41:31;;;;;;;8.27;5.10;;;;;;;;;;10550709;28;20020;-82
2022/04/28 10:47:07;;;;;;;6.43;3.75;;;;;;;;;;10558344;28;20030;-83
2022/04/28 10:52:21;;;;;;;8.50;5.75;;;;;;;;;;10566276;28;20118;-82
2022/04/28 10:57:33;;;;;;;10.13;5.07;;;;;;;;;;10571968;28;20039;-83
2022/04/28 11:02:37;;;;;;;10.23;6.20;;;;;;;;;;10565529;28;20042;-83
2022/04/28 11:07:59;;;;;;;9.48;6.32;;;;;;;;;;10567899;28;20039;-84
2022/04/28 11:13:22;;;;;;;6.25;3.90;;;;;;;;;;10562883;28;20028;-84
2022/04/28 11:18:32;;;;;;;6.72;4.30;;;;;;;;;;10559172;28;20043;-83
2022/04/28 11:24:00;;;;;;;9.32;7.63;;;;;;;;;;10558467;28;20069;-84
2022/04/28 11:29:10;;;;;;;9.65;4.20;;;;;;;;;;10552620;28;20107;-80
2022/04/28 11:34:12;;;;;;;8.25;5.60;;;;;;;;;;10563979;28;20056;-81
2022/04/28 11:45:16;;;;;;;4.30;3.10;;;;;;;;;;10558740;28;20048;-84
2022/04/28 11:50:51;;;;;;;8.38;4.78;;;;;;;;;;10522199;28;20047;-84
2022/04/28 11:56:13;;;;;;;5.60;3.97;;;;;;;;;;10538158;28;20061;-84
2022/04/28 12:01:15;;;;;;;8.20;4.22;;;;;;;;;;10532568;28;20118;-80
2022/04/28 12:06:41;;;;;;;10.93;5.53;;;;;;;;;;10533808;28;20066;-82
2022/04/28 12:22:55;;;;;;;4.82;3.45;;;;;;;;;;10558101;28;20032;-83
2022/04/28 12:57:03;;;;;;;7.88;6.07;;;;;;;;;;10591114;28;20061;-83
2022/04/28 13:02:09;;;;;;;11.88;8.38;;;;;;;;;;10578506;28;20044;-84
2022/04/28 13:13:25;;;;;;;9.10;6.63;;;;;;;;;;10640416;27;20027;-79
2022/04/28 13:19:10;;;;;;;7.25;3.97;;;;;;;;;;10620703;27;20087;-82
2022/04/28 13:24:17;;;;;;;8.70;5.80;;;;;;;;;;10616900;27;20524;-81
2022/04/28 13:29:21;;;;;;;6.00;3.67;;;;;;;;;;10622498;27;20126;-84
2022/04/28 13:40:15;;;;;;;9.85;3.80;;;;;;;;;;10638158;27;20031;-82
2022/04/28 13:45:16;;;;;;;17.98;13.02;;;;;;;;;;10617187;27;20042;-81
2022/04/28 13:50:31;;;;;;;5.70;4.43;;;;;;;;;;10622006;27;20114;-84
2022/04/28 13:55:44;;;;;;;8.52;3.80;;;;;;;;;;10624182;27;20050;-83
2022/04/28 14:00:49;;;;;;;9.98;6.40;;;;;;;;;;10630740;28;20051;-84
2022/04/28 14:05:53;;;;;;;8.23;3.25;;;;;;;;;;10668795;27;20034;-83
2022/04/28 14:11:04;;;;;;;6.28;3.65;;;;;;;;;;10665561;28;20123;-83
2022/04/28 14:16:12;;;;;;;5.60;3.17;;;;;;;;;;10624058;28;20023;-80
2022/04/28 14:21:42;;;;;;;9.75;5.38;;;;;;;;;;10649775;27;20103;-80
2022/04/28 14:26:51;;;;;;;6.70;4.38;;;;;;;;;;10619436;27;20065;-82
2022/04/28 14:32:22;;;;;;;6.93;4.68;;;;;;;;;;10641537;27;20019;-82
2022/04/28 14:37:25;;;;;;;8.68;5.53;;;;;;;;;;10626211;27;20118;-80
2022/04/28 14:42:27;;;;;;;10.15;5.38;;;;;;;;;;10624314;27;20168;-80
2022/04/28 14:47:28;;;;;;;8.45;3.88;;;;;;;;;;10621688;27;20034;-79
2022/04/28 14:52:37;;;;;;;6.45;2.95;;;;;;;;;;10635789;27;20150;-81
2022/04/28 14:57:50;;;;;;;5.05;3.42;;;;;;;;;;10642833;27;20102;-77
2022/04/28 15:02:55;;;;;;;6.63;3.95;;;;;;;;;;10614636;27;20035;-82
2022/04/28 15:08:21;;;;;;;5.85;3.08;;;;;;;;;;10653143;27;20038;-84
2022/04/28 15:13:26;;;;;;;12.45;8.93;;;;;;;;;;10631950;27;20035;-81
2022/04/28 15:19:01;;;;;;;8.70;3.38;;;;;;;;;;10642449;27;20493;-83
2022/04/28 15:24:06;;;;;;;7.35;3.28;;;;;;;;;;10645193;27;20032;-84
2022/04/28 15:29:14;;;;;;;5.75;3.25;;;;;;;;;;10620594;27;20031;-84
2022/04/28 15:34:21;;;;;;;5.45;3.35;;;;;;;;;;10643323;27;20019;-80
2022/04/28 15:39:39;;;;;;;6.95;4.25;;;;;;;;;;10635547;27;20051;-82
2022/04/28 15:44:43;;;;;;;7.78;3.42;;;;;;;;;;10647681;27;20080;-82
2022/04/28 15:49:45;;;;;;;5.95;3.90;;;;;;;;;;10625826;27;20023;-81
2022/04/28 15:54:52;;;;;;;8.00;5.22;;;;;;;;;;10631652;27;20084;-83
2022/04/28 16:00:15;;;;;;;8.25;4.10;;;;;;;;;;10646379;27;20015;-86
2022/04/28 16:11:09;;;;;;;7.10;3.90;;;;;;;;;;10650584;27;20504;-85
2022/04/28 16:16:11;;;;;;;8.68;5.10;;;;;;;;;;10644508;27;20451;-87
2022/04/28 16:21:31;;;;;;;8.65;6.28;;;;;;;;;;10625791;27;20035;-84
2022/04/28 16:26:39;;;;;;;5.50;4.18;;;;;;;;;;10638485;27;20037;-87
